sensor_id;sensor_type;location;lat;lon;timestamp;P1;durP1;ratioP1;P2;durP2;ratioP2
18104;SDS011;9179;50.968;3.134;2023-01-16T00:00:09;2.40;;;2.10;;
18104;SDS011;9179;50.968;3.134;2023-01-16T00:02:37;2.88;;;2.45;;
18104;SDS011;9179;50.968;3.134;2023-01-16T00:05:04;2.70;;;2.45;;
18104;SDS011;9179;50.968;3.134;2023-01-16T00:07:31;3.30;;;3.00;;
18104;SDS011;9179;50.968;3.134;2023-01-16T00:09:58;5.55;;;2.65;;
18104;SDS011;9179;50.968;3.134;2023-01-16T00:12:26;5.57;;;2.50;;
18104;SDS011;9179;50.968;3.134;2023-01-16T00:14:53;2.92;;;2.40;;
18104;SDS011;9179;50.968;3.134;2023-01-16T00:17:20;4.90;;;2.45;;
18104;SDS011;9179;50.968;3.134;2023-01-16T00:19:47;2.90;;;2.10;;
18104;SDS011;9179;50.968;3.134;2023-01-16T00:22:14;2.50;;;2.30;;
18104;SDS011;9179;50.968;3.134;2023-01-16T00:24:41;2.65;;;2.42;;
18104;SDS011;9179;50.968;3.134;2023-01-16T00:27:08;5.57;;;2.83;;
18104;SDS011;9179;50.968;3.134;2023-01-16T00:29:36;2.00;;;1.90;;
18104;SDS011;9179;50.968;3.134;2023-01-16T00:32:03;4.25;;;3.10;;
18104;SDS011;9179;50.968;3.134;2023-01-16T00:34:30;2.92;;;2.67;;
18104;SDS011;9179;50.968;3.134;2023-01-16T00:36:57;6.70;;;2.58;;
18104;SDS011;9179;50.968;3.134;2023-01-16T00:39:24;2.80;;;2.60;;
18104;SDS011;9179;50.968;3.134;2023-01-16T00:41:51;6.50;;;2.83;;
18104;SDS011;9179;50.968;3.134;2023-01-16T00:44:18;2.83;;;2.63;;
18104;SDS011;9179;50.968;3.134;2023-01-16T00:46:46;15.32;;;5.65;;
18104;SDS011;9179;50.968;3.134;2023-01-16T00:49:13;2.60;;;2.40;;
18104;SDS011;9179;50.968;3.134;2023-01-16T00:51:40;6.88;;;2.50;;
18104;SDS011;9179;50.968;3.134;2023-01-16T00:54:07;3.17;;;2.40;;
18104;SDS011;9179;50.968;3.134;2023-01-16T00:56:34;1.85;;;1.75;;
18104;SDS011;9179;50.968;3.134;2023-01-16T00:59:01;5.18;;;2.38;;
18104;SDS011;9179;50.968;3.134;2023-01-16T01:01:28;2.40;;;2.20;;
18104;SDS011;9179;50.968;3.134;2023-01-16T01:03:57;2.97;;;2.78;;
18104;SDS011;9179;50.968;3.134;2023-01-16T01:06:24;2.03;;;1.73;;
18104;SDS011;9179;50.968;3.134;2023-01-16T01:08:51;1.70;;;1.60;;
18104;SDS011;9179;50.968;3.134;2023-01-16T01:11:18;2.78;;;2.20;;
18104;SDS011;9179;50.968;3.134;2023-01-16T01:13:45;3.25;;;2.65;;
18104;SDS011;9179;50.968;3.134;2023-01-16T01:16:12;2.33;;;1.90;;
18104;SDS011;9179;50.968;3.134;2023-01-16T01:18:39;3.97;;;1.73;;
18104;SDS011;9179;50.968;3.134;2023-01-16T01:21:08;1.70;;;1.60;;
18104;SDS011;9179;50.968;3.134;2023-01-16T01:23:35;3.35;;;1.75;;
18104;SDS011;9179;50.968;3.134;2023-01-16T01:26:06;2.42;;;1.80;;
18104;SDS011;9179;50.968;3.134;2023-01-16T01:28:34;2.58;;;1.70;;
18104;SDS011;9179;50.968;3.134;2023-01-16T01:31:01;2.90;;;1.65;;
18104;SDS011;9179;50.968;3.134;2023-01-16T01:33:29;1.48;;;1.38;;
18104;SDS011;9179;50.968;3.134;2023-01-16T01:35:56;2.60;;;1.95;;
18104;SDS011;9179;50.968;3.134;2023-01-16T01:38:24;3.50;;;1.90;;
18104;SDS011;9179;50.968;3.134;2023-01-16T01:40:51;4.55;;;2.83;;
18104;SDS011;9179;50.968;3.134;2023-01-16T01:43:18;6.32;;;2.30;;
18104;SDS011;9179;50.968;3.134;2023-01-16T01:45:46;5.47;;;2.30;;
18104;SDS011;9179;50.968;3.134;2023-01-16T01:48:22;4.38;;;2.75;;
18104;SDS011;9179;50.968;3.134;2023-01-16T01:50:53;5.07;;;2.28;;
18104;SDS011;9179;50.968;3.134;2023-01-16T01:53:29;2.97;;;2.30;;
18104;SDS011;9179;50.968;3.134;2023-01-16T01:55:59;7.15;;;2.95;;
18104;SDS011;9179;50.968;3.134;2023-01-16T01:58:33;2.65;;;1.85;;
18104;SDS011;9179;50.968;3.134;2023-01-16T02:01:00;4.95;;;2.20;;
18104;SDS011;9179;50.968;3.134;2023-01-16T02:03:30;2.42;;;2.08;;
18104;SDS011;9179;50.968;3.134;2023-01-16T02:06:04;2.00;;;1.90;;
18104;SDS011;9179;50.968;3.134;2023-01-16T02:08:37;5.90;;;2.40;;
18104;SDS011;9179;50.968;3.134;2023-01-16T02:11:10;2.88;;;2.10;;
18104;SDS011;9179;50.968;3.134;2023-01-16T02:13:50;5.07;;;2.50;;
18104;SDS011;9179;50.968;3.134;2023-01-16T02:16:19;2.38;;;2.05;;
18104;SDS011;9179;50.968;3.134;2023-01-16T02:19:04;4.75;;;2.88;;
18104;SDS011;9179;50.968;3.134;2023-01-16T02:25:16;5.32;;;3.15;;
18104;SDS011;9179;50.968;3.134;2023-01-16T02:34:09;4.65;;;2.85;;
18104;SDS011;9179;50.968;3.134;2023-01-16T02:36:56;4.28;;;2.28;;
18104;SDS011;9179;50.968;3.134;2023-01-16T02:39:31;4.60;;;3.00;;
18104;SDS011;9179;50.968;3.134;2023-01-16T02:42:03;6.68;;;3.30;;
18104;SDS011;9179;50.968;3.134;2023-01-16T02:44:40;6.15;;;3.20;;
18104;SDS011;9179;50.968;3.134;2023-01-16T02:47:15;6.30;;;2.90;;
18104;SDS011;9179;50.968;3.134;2023-01-16T02:49:49;4.32;;;2.70;;
18104;SDS011;9179;50.968;3.134;2023-01-16T02:52:23;3.78;;;2.10;;
18104;SDS011;9179;50.968;3.134;2023-01-16T02:54:59;3.72;;;3.15;;
18104;SDS011;9179;50.968;3.134;2023-01-16T02:57:29;5.78;;;2.47;;
18104;SDS011;9179;50.968;3.134;2023-01-16T03:00:00;5.13;;;2.88;;
18104;SDS011;9179;50.968;3.134;2023-01-16T03:02:30;6.65;;;3.75;;
18104;SDS011;9179;50.968;3.134;2023-01-16T03:04:58;4.72;;;2.80;;
18104;SDS011;9179;50.968;3.134;2023-01-16T03:10:47;3.55;;;2.42;;
18104;SDS011;9179;50.968;3.134;2023-01-16T03:13:30;4.28;;;2.75;;
18104;SDS011;9179;50.968;3.134;2023-01-16T03:16:13;5.25;;;2.33;;
18104;SDS011;9179;50.968;3.134;2023-01-16T03:18:50;4.03;;;2.47;;
18104;SDS011;9179;50.968;3.134;2023-01-16T03:21:25;5.25;;;2.33;;
18104;SDS011;9179;50.968;3.134;2023-01-16T03:23:59;2.38;;;2.13;;
18104;SDS011;9179;50.968;3.134;2023-01-16T03:26:33;4.15;;;1.80;;
18104;SDS011;9179;50.968;3.134;2023-01-16T03:29:07;5.28;;;2.13;;
18104;SDS011;9179;50.968;3.134;2023-01-16T03:31:38;6.97;;;2.85;;
18104;SDS011;9179;50.968;3.134;2023-01-16T03:34:11;4.10;;;2.00;;
18104;SDS011;9179;50.968;3.134;2023-01-16T03:36:49;3.72;;;1.90;;
18104;SDS011;9179;50.968;3.134;2023-01-16T03:39:20;4.47;;;1.92;;
18104;SDS011;9179;50.968;3.134;2023-01-16T03:41:50;4.15;;;1.80;;
18104;SDS011;9179;50.968;3.134;2023-01-16T03:44:21;3.45;;;1.77;;
18104;SDS011;9179;50.968;3.134;2023-01-16T03:46:54;2.25;;;2.00;;
18104;SDS011;9179;50.968;3.134;2023-01-16T03:49:24;3.88;;;2.08;;
18104;SDS011;9179;50.968;3.134;2023-01-16T03:51:58;1.77;;;1.67;;
18104;SDS011;9179;50.968;3.134;2023-01-16T03:54:31;3.65;;;2.15;;
18104;SDS011;9179;50.968;3.134;2023-01-16T03:57:05;5.70;;;2.28;;
18104;SDS011;9179;50.968;3.134;2023-01-16T03:59:36;3.45;;;2.05;;
18104;SDS011;9179;50.968;3.134;2023-01-16T04:02:05;6.80;;;2.38;;
18104;SDS011;9179;50.968;3.134;2023-01-16T04:04:38;5.95;;;2.05;;
18104;SDS011;9179;50.968;3.134;2023-01-16T04:07:13;6.43;;;1.98;;
18104;SDS011;9179;50.968;3.134;2023-01-16T04:09:47;2.88;;;1.77;;
18104;SDS011;9179;50.968;3.134;2023-01-16T04:12:19;4.15;;;1.88;;
18104;SDS011;9179;50.968;3.134;2023-01-16T04:14:50;4.32;;;1.48;;
18104;SDS011;9179;50.968;3.134;2023-01-16T04:17:21;5.25;;;3.22;;
18104;SDS011;9179;50.968;3.134;2023-01-16T04:19:48;2.85;;;1.33;;
18104;SDS011;9179;50.968;3.134;2023-01-16T04:22:20;8.93;;;2.38;;
18104;SDS011;9179;50.968;3.134;2023-01-16T04:24:48;2.22;;;2.03;;
18104;SDS011;9179;50.968;3.134;2023-01-16T04:27:17;4.03;;;1.92;;
18104;SDS011;9179;50.968;3.134;2023-01-16T04:29:45;8.32;;;2.33;;
18104;SDS011;9179;50.968;3.134;2023-01-16T04:32:12;2.30;;;1.55;;
18104;SDS011;9179;50.968;3.134;2023-01-16T04:34:39;1.55;;;1.45;;
18104;SDS011;9179;50.968;3.134;2023-01-16T04:37:06;1.63;;;1.52;;
18104;SDS011;9179;50.968;3.134;2023-01-16T04:39:35;2.42;;;1.30;;
18104;SDS011;9179;50.968;3.134;2023-01-16T04:42:02;1.60;;;1.50;;
18104;SDS011;9179;50.968;3.134;2023-01-16T04:44:29;4.35;;;2.03;;
18104;SDS011;9179;50.968;3.134;2023-01-16T04:46:56;2.88;;;1.27;;
18104;SDS011;9179;50.968;3.134;2023-01-16T04:49:23;3.75;;;1.75;;
18104;SDS011;9179;50.968;3.134;2023-01-16T04:51:49;1.40;;;1.30;;
18104;SDS011;9179;50.968;3.134;2023-01-16T04:54:17;1.52;;;1.13;;
18104;SDS011;9179;50.968;3.134;2023-01-16T04:56:46;3.38;;;1.70;;
18104;SDS011;9179;50.968;3.134;2023-01-16T04:59:13;3.75;;;1.58;;
18104;SDS011;9179;50.968;3.134;2023-01-16T05:01:40;2.33;;;1.55;;
18104;SDS011;9179;50.968;3.134;2023-01-16T05:04:08;4.70;;;1.23;;
18104;SDS011;9179;50.968;3.134;2023-01-16T05:06:36;2.03;;;1.40;;
18104;SDS011;9179;50.968;3.134;2023-01-16T05:09:03;2.25;;;1.20;;
18104;SDS011;9179;50.968;3.134;2023-01-16T05:11:31;1.60;;;1.40;;
18104;SDS011;9179;50.968;3.134;2023-01-16T05:14:00;1.92;;;1.02;;
18104;SDS011;9179;50.968;3.134;2023-01-16T05:16:27;4.22;;;1.35;;
18104;SDS011;9179;50.968;3.134;2023-01-16T05:18:54;1.80;;;1.20;;
18104;SDS011;9179;50.968;3.134;2023-01-16T05:21:22;1.60;;;1.13;;
18104;SDS011;9179;50.968;3.134;2023-01-16T05:23:49;1.02;;;0.90;;
18104;SDS011;9179;50.968;3.134;2023-01-16T05:26:16;1.30;;;1.20;;
18104;SDS011;9179;50.968;3.134;2023-01-16T05:28:43;3.38;;;1.15;;
18104;SDS011;9179;50.968;3.134;2023-01-16T05:31:11;1.38;;;1.15;;
18104;SDS011;9179;50.968;3.134;2023-01-16T05:33:38;2.60;;;1.05;;
18104;SDS011;9179;50.968;3.134;2023-01-16T05:36:05;3.38;;;1.40;;
18104;SDS011;9179;50.968;3.134;2023-01-16T05:38:33;1.80;;;1.60;;
18104;SDS011;9179;50.968;3.134;2023-01-16T05:41:00;3.92;;;1.63;;
18104;SDS011;9179;50.968;3.134;2023-01-16T05:43:27;1.58;;;1.35;;
18104;SDS011;9179;50.968;3.134;2023-01-16T05:45:54;1.88;;;1.40;;
18104;SDS011;9179;50.968;3.134;2023-01-16T05:48:22;3.17;;;1.67;;
18104;SDS011;9179;50.968;3.134;2023-01-16T05:50:49;2.72;;;1.58;;
18104;SDS011;9179;50.968;3.134;2023-01-16T05:53:16;3.67;;;1.40;;
18104;SDS011;9179;50.968;3.134;2023-01-16T05:55:44;1.55;;;1.42;;
18104;SDS011;9179;50.968;3.134;2023-01-16T05:58:12;2.65;;;2.17;;
18104;SDS011;9179;50.968;3.134;2023-01-16T06:00:40;1.08;;;1.08;;
18104;SDS011;9179;50.968;3.134;2023-01-16T06:03:08;1.50;;;1.40;;
18104;SDS011;9179;50.968;3.134;2023-01-16T06:05:38;4.07;;;1.23;;
18104;SDS011;9179;50.968;3.134;2023-01-16T06:08:05;1.45;;;1.00;;
18104;SDS011;9179;50.968;3.134;2023-01-16T06:10:32;0.50;;;0.50;;
18104;SDS011;9179;50.968;3.134;2023-01-16T06:12:59;0.50;;;0.50;;
18104;SDS011;9179;50.968;3.134;2023-01-16T06:15:27;0.43;;;0.43;;
18104;SDS011;9179;50.968;3.134;2023-01-16T06:17:54;0.45;;;0.45;;
18104;SDS011;9179;50.968;3.134;2023-01-16T06:20:21;0.40;;;0.40;;
18104;SDS011;9179;50.968;3.134;2023-01-16T06:22:49;0.98;;;0.98;;
18104;SDS011;9179;50.968;3.134;2023-01-16T06:25:16;0.40;;;0.40;;
18104;SDS011;9179;50.968;3.134;2023-01-16T06:27:46;0.40;;;0.40;;
18104;SDS011;9179;50.968;3.134;2023-01-16T06:30:15;0.40;;;0.40;;
18104;SDS011;9179;50.968;3.134;2023-01-16T06:32:42;0.70;;;0.70;;
18104;SDS011;9179;50.968;3.134;2023-01-16T06:35:09;0.95;;;0.75;;
18104;SDS011;9179;50.968;3.134;2023-01-16T06:37:37;0.30;;;0.30;;
18104;SDS011;9179;50.968;3.134;2023-01-16T06:40:06;0.40;;;0.40;;
18104;SDS011;9179;50.968;3.134;2023-01-16T06:42:34;0.50;;;0.50;;
18104;SDS011;9179;50.968;3.134;2023-01-16T06:45:01;0.43;;;0.43;;
18104;SDS011;9179;50.968;3.134;2023-01-16T06:47:28;0.40;;;0.40;;
18104;SDS011;9179;50.968;3.134;2023-01-16T06:49:56;0.40;;;0.40;;
18104;SDS011;9179;50.968;3.134;2023-01-16T06:52:23;1.40;;;1.40;;
18104;SDS011;9179;50.968;3.134;2023-01-16T06:54:50;0.40;;;0.40;;
18104;SDS011;9179;50.968;3.134;2023-01-16T06:57:18;0.50;;;0.50;;
18104;SDS011;9179;50.968;3.134;2023-01-16T06:59:45;0.50;;;0.50;;
18104;SDS011;9179;50.968;3.134;2023-01-16T07:02:12;0.40;;;0.40;;
18104;SDS011;9179;50.968;3.134;2023-01-16T07:04:39;0.70;;;0.70;;
18104;SDS011;9179;50.968;3.134;2023-01-16T07:07:06;0.40;;;0.40;;
18104;SDS011;9179;50.968;3.134;2023-01-16T07:09:33;1.08;;;1.08;;
18104;SDS011;9179;50.968;3.134;2023-01-16T07:12:00;0.60;;;0.60;;
18104;SDS011;9179;50.968;3.134;2023-01-16T07:14:28;0.52;;;0.52;;
18104;SDS011;9179;50.968;3.134;2023-01-16T07:17:12;0.40;;;0.40;;
18104;SDS011;9179;50.968;3.134;2023-01-16T07:19:57;0.73;;;0.73;;
18104;SDS011;9179;50.968;3.134;2023-01-16T07:22:41;0.40;;;0.40;;
18104;SDS011;9179;50.968;3.134;2023-01-16T07:25:11;0.40;;;0.40;;
18104;SDS011;9179;50.968;3.134;2023-01-16T07:27:42;0.75;;;0.75;;
18104;SDS011;9179;50.968;3.134;2023-01-16T07:30:14;1.75;;;0.68;;
18104;SDS011;9179;50.968;3.134;2023-01-16T07:32:42;0.50;;;0.50;;
18104;SDS011;9179;50.968;3.134;2023-01-16T07:35:10;0.55;;;0.55;;
18104;SDS011;9179;50.968;3.134;2023-01-16T07:37:37;0.50;;;0.50;;
18104;SDS011;9179;50.968;3.134;2023-01-16T07:40:05;0.50;;;0.50;;
18104;SDS011;9179;50.968;3.134;2023-01-16T07:42:33;0.40;;;0.40;;
18104;SDS011;9179;50.968;3.134;2023-01-16T07:45:00;0.80;;;0.80;;
18104;SDS011;9179;50.968;3.134;2023-01-16T07:47:28;0.50;;;0.50;;
18104;SDS011;9179;50.968;3.134;2023-01-16T07:49:55;0.40;;;0.40;;
18104;SDS011;9179;50.968;3.134;2023-01-16T07:52:23;0.40;;;0.40;;
18104;SDS011;9179;50.968;3.134;2023-01-16T07:54:50;0.60;;;0.60;;
18104;SDS011;9179;50.968;3.134;2023-01-16T07:57:17;0.50;;;0.50;;
18104;SDS011;9179;50.968;3.134;2023-01-16T07:59:44;0.47;;;0.47;;
18104;SDS011;9179;50.968;3.134;2023-01-16T08:02:11;0.40;;;0.40;;
18104;SDS011;9179;50.968;3.134;2023-01-16T08:04:40;0.38;;;0.38;;
18104;SDS011;9179;50.968;3.134;2023-01-16T08:07:07;0.40;;;0.40;;
18104;SDS011;9179;50.968;3.134;2023-01-16T08:09:34;0.45;;;0.45;;
18104;SDS011;9179;50.968;3.134;2023-01-16T08:12:01;0.30;;;0.30;;
18104;SDS011;9179;50.968;3.134;2023-01-16T08:14:28;0.50;;;0.50;;
18104;SDS011;9179;50.968;3.134;2023-01-16T08:16:55;0.40;;;0.40;;
18104;SDS011;9179;50.968;3.134;2023-01-16T08:19:22;0.40;;;0.40;;
18104;SDS011;9179;50.968;3.134;2023-01-16T08:21:50;0.40;;;0.40;;
18104;SDS011;9179;50.968;3.134;2023-01-16T08:24:17;0.38;;;0.38;;
18104;SDS011;9179;50.968;3.134;2023-01-16T08:26:44;0.63;;;0.63;;
18104;SDS011;9179;50.968;3.134;2023-01-16T08:29:11;0.40;;;0.40;;
18104;SDS011;9179;50.968;3.134;2023-01-16T08:31:38;0.40;;;0.40;;
18104;SDS011;9179;50.968;3.134;2023-01-16T08:34:05;5.88;;;0.88;;
18104;SDS011;9179;50.968;3.134;2023-01-16T08:36:32;0.40;;;0.40;;
18104;SDS011;9179;50.968;3.134;2023-01-16T08:39:00;0.40;;;0.40;;
18104;SDS011;9179;50.968;3.134;2023-01-16T08:41:28;0.70;;;0.70;;
18104;SDS011;9179;50.968;3.134;2023-01-16T08:44:12;0.73;;;0.73;;
18104;SDS011;9179;50.968;3.134;2023-01-16T08:46:57;0.63;;;0.63;;
18104;SDS011;9179;50.968;3.134;2023-01-16T08:49:44;0.40;;;0.40;;
18104;SDS011;9179;50.968;3.134;2023-01-16T08:52:29;0.50;;;0.50;;
18104;SDS011;9179;50.968;3.134;2023-01-16T08:54:57;0.55;;;0.55;;
18104;SDS011;9179;50.968;3.134;2023-01-16T08:57:25;0.38;;;0.38;;
18104;SDS011;9179;50.968;3.134;2023-01-16T08:59:53;0.40;;;0.40;;
18104;SDS011;9179;50.968;3.134;2023-01-16T09:02:20;0.30;;;0.30;;
18104;SDS011;9179;50.968;3.134;2023-01-16T09:04:47;0.35;;;0.35;;
18104;SDS011;9179;50.968;3.134;2023-01-16T09:07:14;0.40;;;0.40;;
18104;SDS011;9179;50.968;3.134;2023-01-16T09:09:42;0.40;;;0.40;;
18104;SDS011;9179;50.968;3.134;2023-01-16T09:12:11;0.82;;;0.82;;
18104;SDS011;9179;50.968;3.134;2023-01-16T09:14:56;0.35;;;0.35;;
18104;SDS011;9179;50.968;3.134;2023-01-16T09:17:24;0.30;;;0.30;;
18104;SDS011;9179;50.968;3.134;2023-01-16T09:19:52;0.40;;;0.40;;
18104;SDS011;9179;50.968;3.134;2023-01-16T09:22:19;0.50;;;0.50;;
18104;SDS011;9179;50.968;3.134;2023-01-16T09:24:47;0.40;;;0.40;;
18104;SDS011;9179;50.968;3.134;2023-01-16T09:27:15;0.50;;;0.50;;
18104;SDS011;9179;50.968;3.134;2023-01-16T09:29:43;0.40;;;0.40;;
18104;SDS011;9179;50.968;3.134;2023-01-16T09:32:11;0.32;;;0.32;;
18104;SDS011;9179;50.968;3.134;2023-01-16T09:34:38;0.30;;;0.30;;
18104;SDS011;9179;50.968;3.134;2023-01-16T09:37:07;0.40;;;0.40;;
18104;SDS011;9179;50.968;3.134;2023-01-16T09:39:34;0.40;;;0.40;;
18104;SDS011;9179;50.968;3.134;2023-01-16T09:42:05;0.40;;;0.40;;
18104;SDS011;9179;50.968;3.134;2023-01-16T09:45:03;0.30;;;0.30;;
18104;SDS011;9179;50.968;3.134;2023-01-16T09:47:33;0.40;;;0.40;;
18104;SDS011;9179;50.968;3.134;2023-01-16T09:50:02;0.40;;;0.40;;
18104;SDS011;9179;50.968;3.134;2023-01-16T09:52:33;0.30;;;0.30;;
18104;SDS011;9179;50.968;3.134;2023-01-16T09:55:21;0.30;;;0.30;;
18104;SDS011;9179;50.968;3.134;2023-01-16T09:58:10;0.30;;;0.30;;
18104;SDS011;9179;50.968;3.134;2023-01-16T10:00:59;0.55;;;0.55;;
18104;SDS011;9179;50.968;3.134;2023-01-16T10:03:26;0.30;;;0.30;;
18104;SDS011;9179;50.968;3.134;2023-01-16T10:05:55;0.30;;;0.30;;
18104;SDS011;9179;50.968;3.134;2023-01-16T10:08:29;0.30;;;0.30;;
18104;SDS011;9179;50.968;3.134;2023-01-16T10:11:06;0.30;;;0.30;;
18104;SDS011;9179;50.968;3.134;2023-01-16T10:13:44;0.40;;;0.40;;
18104;SDS011;9179;50.968;3.134;2023-01-16T10:16:21;0.30;;;0.30;;
18104;SDS011;9179;50.968;3.134;2023-01-16T10:19:00;0.50;;;0.50;;
18104;SDS011;9179;50.968;3.134;2023-01-16T10:24:44;0.40;;;0.40;;
18104;SDS011;9179;50.968;3.134;2023-01-16T10:27:19;0.30;;;0.30;;
18104;SDS011;9179;50.968;3.134;2023-01-16T10:29:54;0.30;;;0.30;;
18104;SDS011;9179;50.968;3.134;2023-01-16T10:32:29;0.30;;;0.30;;
18104;SDS011;9179;50.968;3.134;2023-01-16T10:35:02;0.40;;;0.40;;
18104;SDS011;9179;50.968;3.134;2023-01-16T10:37:35;0.30;;;0.30;;
18104;SDS011;9179;50.968;3.134;2023-01-16T10:40:08;0.55;;;0.55;;
18104;SDS011;9179;50.968;3.134;2023-01-16T10:42:39;0.60;;;0.60;;
18104;SDS011;9179;50.968;3.134;2023-01-16T10:45:26;0.38;;;0.38;;
18104;SDS011;9179;50.968;3.134;2023-01-16T10:48:16;0.40;;;0.40;;
18104;SDS011;9179;50.968;3.134;2023-01-16T10:51:01;0.30;;;0.30;;
18104;SDS011;9179;50.968;3.134;2023-01-16T10:53:29;0.40;;;0.40;;
18104;SDS011;9179;50.968;3.134;2023-01-16T10:55:57;2.13;;;1.13;;
18104;SDS011;9179;50.968;3.134;2023-01-16T10:58:26;0.60;;;0.60;;
18104;SDS011;9179;50.968;3.134;2023-01-16T11:00:56;0.85;;;0.85;;
18104;SDS011;9179;50.968;3.134;2023-01-16T11:03:30;0.40;;;0.40;;
18104;SDS011;9179;50.968;3.134;2023-01-16T11:06:06;0.50;;;0.50;;
18104;SDS011;9179;50.968;3.134;2023-01-16T11:08:37;0.40;;;0.40;;
18104;SDS011;9179;50.968;3.134;2023-01-16T11:11:04;0.47;;;0.47;;
18104;SDS011;9179;50.968;3.134;2023-01-16T11:13:51;0.50;;;0.50;;
18104;SDS011;9179;50.968;3.134;2023-01-16T11:16:36;0.40;;;0.40;;
18104;SDS011;9179;50.968;3.134;2023-01-16T11:19:23;0.55;;;0.55;;
18104;SDS011;9179;50.968;3.134;2023-01-16T11:21:54;0.40;;;0.40;;
18104;SDS011;9179;50.968;3.134;2023-01-16T11:24:23;0.40;;;0.40;;
18104;SDS011;9179;50.968;3.134;2023-01-16T11:26:57;0.68;;;0.68;;
18104;SDS011;9179;50.968;3.134;2023-01-16T11:29:26;2.58;;;1.10;;
18104;SDS011;9179;50.968;3.134;2023-01-16T11:31:58;0.40;;;0.40;;
18104;SDS011;9179;50.968;3.134;2023-01-16T11:34:30;0.50;;;0.50;;
18104;SDS011;9179;50.968;3.134;2023-01-16T11:36:58;0.50;;;0.50;;
18104;SDS011;9179;50.968;3.134;2023-01-16T11:39:29;0.40;;;0.40;;
18104;SDS011;9179;50.968;3.134;2023-01-16T11:41:58;1.70;;;1.70;;
18104;SDS011;9179;50.968;3.134;2023-01-16T11:44:53;0.70;;;0.70;;
18104;SDS011;9179;50.968;3.134;2023-01-16T11:47:40;0.40;;;0.40;;
18104;SDS011;9179;50.968;3.134;2023-01-16T11:52:53;0.45;;;0.45;;
18104;SDS011;9179;50.968;3.134;2023-01-16T11:55:20;0.45;;;0.45;;
18104;SDS011;9179;50.968;3.134;2023-01-16T11:57:51;0.40;;;0.40;;
18104;SDS011;9179;50.968;3.134;2023-01-16T12:00:28;0.40;;;0.40;;
18104;SDS011;9179;50.968;3.134;2023-01-16T12:06:15;0.40;;;0.40;;
18104;SDS011;9179;50.968;3.134;2023-01-16T12:08:58;0.50;;;0.50;;
18104;SDS011;9179;50.968;3.134;2023-01-16T12:14:55;0.40;;;0.40;;
18104;SDS011;9179;50.968;3.134;2023-01-16T12:17:31;0.75;;;0.75;;
18104;SDS011;9179;50.968;3.134;2023-01-16T12:20:11;0.40;;;0.40;;
18104;SDS011;9179;50.968;3.134;2023-01-16T12:22:51;0.47;;;0.47;;
18104;SDS011;9179;50.968;3.134;2023-01-16T12:25:39;0.40;;;0.40;;
18104;SDS011;9179;50.968;3.134;2023-01-16T12:28:19;0.40;;;0.40;;
18104;SDS011;9179;50.968;3.134;2023-01-16T12:34:04;0.50;;;0.50;;
18104;SDS011;9179;50.968;3.134;2023-01-16T12:36:42;0.40;;;0.40;;
18104;SDS011;9179;50.968;3.134;2023-01-16T12:39:25;0.40;;;0.40;;
18104;SDS011;9179;50.968;3.134;2023-01-16T12:42:00;0.82;;;0.82;;
18104;SDS011;9179;50.968;3.134;2023-01-16T12:44:55;0.50;;;0.50;;
18104;SDS011;9179;50.968;3.134;2023-01-16T12:47:32;0.77;;;0.77;;
18104;SDS011;9179;50.968;3.134;2023-01-16T12:50:13;0.60;;;0.60;;
18104;SDS011;9179;50.968;3.134;2023-01-16T12:53:00;0.40;;;0.40;;
18104;SDS011;9179;50.968;3.134;2023-01-16T12:55:41;0.40;;;0.40;;
18104;SDS011;9179;50.968;3.134;2023-01-16T12:58:15;0.60;;;0.60;;
18104;SDS011;9179;50.968;3.134;2023-01-16T13:00:45;0.30;;;0.30;;
18104;SDS011;9179;50.968;3.134;2023-01-16T13:03:20;0.40;;;0.40;;
18104;SDS011;9179;50.968;3.134;2023-01-16T13:05:53;0.40;;;0.40;;
18104;SDS011;9179;50.968;3.134;2023-01-16T13:08:23;0.38;;;0.38;;
18104;SDS011;9179;50.968;3.134;2023-01-16T13:10:56;0.40;;;0.40;;
18104;SDS011;9179;50.968;3.134;2023-01-16T13:13:49;0.40;;;0.40;;
18104;SDS011;9179;50.968;3.134;2023-01-16T13:16:20;4.10;;;1.27;;
18104;SDS011;9179;50.968;3.134;2023-01-16T13:18:53;0.40;;;0.40;;
18104;SDS011;9179;50.968;3.134;2023-01-16T13:21:25;14.15;;;1.20;;
18104;SDS011;9179;50.968;3.134;2023-01-16T13:23:54;0.40;;;0.40;;
18104;SDS011;9179;50.968;3.134;2023-01-16T13:26:25;0.80;;;0.80;;
18104;SDS011;9179;50.968;3.134;2023-01-16T13:28:56;0.50;;;0.50;;
18104;SDS011;9179;50.968;3.134;2023-01-16T13:31:30;0.32;;;0.32;;
18104;SDS011;9179;50.968;3.134;2023-01-16T13:34:01;0.75;;;0.75;;
18104;SDS011;9179;50.968;3.134;2023-01-16T13:42:54;0.40;;;0.40;;
18104;SDS011;9179;50.968;3.134;2023-01-16T13:45:44;0.30;;;0.30;;
18104;SDS011;9179;50.968;3.134;2023-01-16T13:48:15;0.40;;;0.40;;
18104;SDS011;9179;50.968;3.134;2023-01-16T13:50:45;0.40;;;0.40;;
18104;SDS011;9179;50.968;3.134;2023-01-16T13:53:18;0.40;;;0.40;;
18104;SDS011;9179;50.968;3.134;2023-01-16T13:55:47;0.40;;;0.40;;
18104;SDS011;9179;50.968;3.134;2023-01-16T13:58:18;5.93;;;1.10;;
18104;SDS011;9179;50.968;3.134;2023-01-16T14:00:46;0.43;;;0.43;;
18104;SDS011;9179;50.968;3.134;2023-01-16T14:03:23;0.77;;;0.77;;
18104;SDS011;9179;50.968;3.134;2023-01-16T14:05:52;0.50;;;0.50;;
18104;SDS011;9179;50.968;3.134;2023-01-16T14:11:36;0.40;;;0.40;;
18104;SDS011;9179;50.968;3.134;2023-01-16T14:14:24;0.35;;;0.35;;
18104;SDS011;9179;50.968;3.134;2023-01-16T14:17:12;0.40;;;0.40;;
18104;SDS011;9179;50.968;3.134;2023-01-16T14:19:41;0.40;;;0.40;;
18104;SDS011;9179;50.968;3.134;2023-01-16T14:22:16;0.40;;;0.40;;
18104;SDS011;9179;50.968;3.134;2023-01-16T14:25:18;0.40;;;0.40;;
18104;SDS011;9179;50.968;3.134;2023-01-16T14:27:49;0.50;;;0.50;;
18104;SDS011;9179;50.968;3.134;2023-01-16T14:30:21;0.40;;;0.40;;
18104;SDS011;9179;50.968;3.134;2023-01-16T14:32:52;0.60;;;0.60;;
18104;SDS011;9179;50.968;3.134;2023-01-16T14:35:22;0.40;;;0.40;;
18104;SDS011;9179;50.968;3.134;2023-01-16T14:37:58;1.88;;;1.75;;
18104;SDS011;9179;50.968;3.134;2023-01-16T14:40:28;0.60;;;0.60;;
18104;SDS011;9179;50.968;3.134;2023-01-16T14:43:17;0.68;;;0.68;;
18104;SDS011;9179;50.968;3.134;2023-01-16T14:46:24;0.40;;;0.40;;
18104;SDS011;9179;50.968;3.134;2023-01-16T14:49:44;0.30;;;0.30;;
18104;SDS011;9179;50.968;3.134;2023-01-16T14:52:48;0.52;;;0.52;;
18104;SDS011;9179;50.968;3.134;2023-01-16T14:55:43;0.30;;;0.30;;
18104;SDS011;9179;50.968;3.134;2023-01-16T14:58:15;0.40;;;0.40;;
18104;SDS011;9179;50.968;3.134;2023-01-16T15:00:52;0.40;;;0.40;;
18104;SDS011;9179;50.968;3.134;2023-01-16T15:03:43;1.67;;;1.67;;
18104;SDS011;9179;50.968;3.134;2023-01-16T15:06:11;0.57;;;0.57;;
18104;SDS011;9179;50.968;3.134;2023-01-16T15:08:40;0.65;;;0.65;;
18104;SDS011;9179;50.968;3.134;2023-01-16T15:11:10;0.40;;;0.40;;
18104;SDS011;9179;50.968;3.134;2023-01-16T15:14:05;0.40;;;0.40;;
18104;SDS011;9179;50.968;3.134;2023-01-16T15:16:53;0.40;;;0.40;;
18104;SDS011;9179;50.968;3.134;2023-01-16T15:19:51;0.40;;;0.40;;
18104;SDS011;9179;50.968;3.134;2023-01-16T15:22:39;0.47;;;0.47;;
18104;SDS011;9179;50.968;3.134;2023-01-16T15:25:11;0.45;;;0.45;;
18104;SDS011;9179;50.968;3.134;2023-01-16T15:27:49;0.60;;;0.60;;
18104;SDS011;9179;50.968;3.134;2023-01-16T15:30:22;0.40;;;0.40;;
18104;SDS011;9179;50.968;3.134;2023-01-16T15:32:53;0.40;;;0.40;;
18104;SDS011;9179;50.968;3.134;2023-01-16T15:35:42;0.80;;;0.80;;
18104;SDS011;9179;50.968;3.134;2023-01-16T15:38:10;2.33;;;1.05;;
18104;SDS011;9179;50.968;3.134;2023-01-16T15:40:38;0.40;;;0.40;;
18104;SDS011;9179;50.968;3.134;2023-01-16T15:43:13;0.55;;;0.52;;
18104;SDS011;9179;50.968;3.134;2023-01-16T15:46:01;0.40;;;0.40;;
18104;SDS011;9179;50.968;3.134;2023-01-16T15:49:00;0.77;;;0.77;;
18104;SDS011;9179;50.968;3.134;2023-01-16T15:51:37;0.80;;;0.80;;
18104;SDS011;9179;50.968;3.134;2023-01-16T15:54:04;0.40;;;0.40;;
18104;SDS011;9179;50.968;3.134;2023-01-16T15:56:33;0.50;;;0.50;;
18104;SDS011;9179;50.968;3.134;2023-01-16T15:59:03;0.35;;;0.35;;
18104;SDS011;9179;50.968;3.134;2023-01-16T16:01:45;0.40;;;0.40;;
18104;SDS011;9179;50.968;3.134;2023-01-16T16:04:12;0.40;;;0.40;;
18104;SDS011;9179;50.968;3.134;2023-01-16T16:06:41;0.50;;;0.50;;
18104;SDS011;9179;50.968;3.134;2023-01-16T16:11:42;1.25;;;1.25;;